createdAt,value
2022-11-14T00:01:02.259Z,13.80
2022-11-14T00:05:07.977Z,13.05
2022-11-14T00:10:08.537Z,14.77
2022-11-14T00:15:08.248Z,10.98
2022-11-14T00:20:07.943Z,13.63
2022-11-14T00:25:08.704Z,10.35
2022-11-14T00:30:08.420Z,14.18
2022-11-14T00:35:08.134Z,14.57
2022-11-14T00:40:07.868Z,16.50
2022-11-14T00:45:08.582Z,14.55
2022-11-14T00:50:08.293Z,14.70
2022-11-14T00:55:07.993Z,16.33
2022-11-14T01:00:07.637Z,15.75
2022-11-14T01:05:08.606Z,15.32
2022-11-14T01:10:08.289Z,19.30
2022-11-14T01:15:08.031Z,17.02
2022-11-14T01:20:07.746Z,18.00
2022-11-14T01:25:08.449Z,16.80
2022-11-14T01:30:08.187Z,18.48
2022-11-14T01:35:07.859Z,15.27
2022-11-14T01:40:08.549Z,15.82
2022-11-14T01:45:08.278Z,18.98
2022-11-14T01:50:08.016Z,15.40
2022-11-14T01:55:07.711Z,16.35
2022-11-14T02:00:08.402Z,18.10
2022-11-14T02:05:08.114Z,19.00
2022-11-14T02:10:07.800Z,20.08
2022-11-14T02:15:08.462Z,18.08
2022-11-14T02:20:08.252Z,18.80
2022-11-14T02:25:07.945Z,18.00
2022-11-14T02:30:07.658Z,17.52
2022-11-14T02:35:08.352Z,19.05
2022-11-14T02:40:08.057Z,22.45
2022-11-14T02:45:07.748Z,20.30
2022-11-14T02:50:08.430Z,19.85
2022-11-14T02:55:08.135Z,22.17
2022-11-14T03:00:13.531Z,22.60
2022-11-14T03:05:07.716Z,20.80
2022-11-14T03:10:08.441Z,23.13
2022-11-14T03:15:08.164Z,21.05
2022-11-14T03:20:07.871Z,21.98
2022-11-14T03:25:08.567Z,18.10
2022-11-14T03:30:08.270Z,19.38
2022-11-14T03:35:07.955Z,21.67
2022-11-14T03:40:07.662Z,22.40
2022-11-14T03:45:08.370Z,21.20
2022-11-14T03:50:08.085Z,20.42
2022-11-14T03:55:07.771Z,24.42
2022-11-14T04:00:08.463Z,23.20
2022-11-14T04:05:08.149Z,21.95
2022-11-14T04:10:07.901Z,23.45
2022-11-14T04:15:08.612Z,21.70
2022-11-14T04:20:08.346Z,22.17
2022-11-14T04:25:08.028Z,20.20
2022-11-14T04:30:07.745Z,19.95
2022-11-14T04:35:08.439Z,22.48
2022-11-14T04:40:08.146Z,22.35
2022-11-14T04:45:07.901Z,22.75
2022-11-14T04:50:08.640Z,21.50
2022-11-14T04:55:08.339Z,21.33
2022-11-14T05:00:08.059Z,20.70
2022-11-14T05:05:01.790Z,19.52
2022-11-14T05:10:02.544Z,22.38
2022-11-14T05:15:02.357Z,21.15
2022-11-14T05:20:02.241Z,19.02
2022-11-14T05:25:02.016Z,22.38
2022-11-14T05:30:01.863Z,21.70
2022-11-14T05:35:02.725Z,20.52
2022-11-14T05:40:02.563Z,20.33
2022-11-14T05:45:02.371Z,17.05
2022-11-14T05:50:02.221Z,23.80
2022-11-14T05:55:01.991Z,20.77
2022-11-14T06:00:01.786Z,20.27
2022-11-14T06:05:02.652Z,19.45
2022-11-14T06:10:02.418Z,23.02
2022-11-14T06:15:02.193Z,21.70
2022-11-14T06:20:02.093Z,21.95
2022-11-14T06:25:02.000Z,26.60
2022-11-14T06:30:01.888Z,20.08
2022-11-14T06:35:02.801Z,21.80
2022-11-14T06:40:02.864Z,21.05
2022-11-14T06:45:02.922Z,26.02
2022-11-14T06:50:02.908Z,25.13
2022-11-14T06:55:02.851Z,20.95
2022-11-14T07:00:02.756Z,22.55
2022-11-14T07:05:02.704Z,25.95
2022-11-14T07:10:02.836Z,33.70
2022-11-14T07:15:02.679Z,23.10
2022-11-14T07:20:02.486Z,25.08
2022-11-14T07:25:02.217Z,26.30
2022-11-14T07:30:02.035Z,24.55
2022-11-14T07:35:02.750Z,26.25
2022-11-14T07:40:01.807Z,19.48
2022-11-14T07:45:02.650Z,21.45
2022-11-14T07:50:02.483Z,22.13
2022-11-14T07:55:02.294Z,19.83
2022-11-14T08:00:02.179Z,22.80
2022-11-14T08:05:01.928Z,24.20
2022-11-14T08:10:02.724Z,20.33
2022-11-14T08:15:02.535Z,25.05
2022-11-14T08:20:02.382Z,21.98
2022-11-14T08:25:02.190Z,26.83
2022-11-14T08:30:02.133Z,26.42
2022-11-14T08:35:01.979Z,28.60
2022-11-14T08:40:01.893Z,26.85
2022-11-14T08:45:02.624Z,27.85
2022-11-14T08:50:02.576Z,24.83
2022-11-14T08:55:02.394Z,26.52
2022-11-14T09:00:02.229Z,27.42
2022-11-14T09:05:02.051Z,25.23
2022-11-14T09:10:01.896Z,26.50
2022-11-14T09:15:02.733Z,23.77
2022-11-14T09:20:02.707Z,25.92
2022-11-14T09:25:02.610Z,22.95
2022-11-14T09:30:02.532Z,23.77
2022-11-14T09:35:02.458Z,15.70
2022-11-14T09:40:02.398Z,17.10
2022-11-14T09:45:02.248Z,15.18
2022-11-14T09:50:02.252Z,13.77
2022-11-14T09:55:02.073Z,18.63
2022-11-14T10:00:01.914Z,22.52
2022-11-14T10:05:09.356Z,19.45
2022-11-14T10:10:02.181Z,17.63
2022-11-14T10:15:01.994Z,18.05
2022-11-14T10:20:01.825Z,16.00
2022-11-14T10:25:02.602Z,14.82
2022-11-14T10:30:12.475Z,0
2022-11-14T10:35:02.253Z,16.92
2022-11-14T10:40:02.071Z,16.42
2022-11-14T10:45:01.889Z,22.38
2022-11-14T10:50:02.762Z,19.35
2022-11-14T10:55:02.670Z,19.85
2022-11-14T11:00:02.530Z,13.52
2022-11-14T11:05:02.357Z,22.33
2022-11-14T11:10:02.137Z,21.33
2022-11-14T11:15:06.893Z,18.23
2022-11-14T11:20:12.722Z,0
2022-11-14T11:25:02.604Z,19.40
2022-11-14T11:30:02.469Z,19.05
2022-11-14T11:35:02.412Z,20.73
2022-11-14T11:40:02.235Z,20.63
2022-11-14T11:45:01.961Z,18.58
2022-11-14T11:50:01.823Z,21.25
2022-11-14T11:55:02.639Z,18.30
2022-11-14T12:00:02.606Z,23.13
2022-11-14T12:05:02.566Z,15.93
2022-11-14T12:10:10.291Z,19.98
2022-11-14T12:15:02.029Z,17.08
2022-11-14T12:20:01.972Z,14.75
2022-11-14T12:25:01.947Z,14.25
2022-11-14T12:30:01.892Z,16.05
2022-11-14T12:35:02.917Z,11.73
2022-11-14T12:40:01.832Z,11.25
2022-11-14T12:45:02.682Z,8.60
2022-11-14T12:50:02.480Z,7.88
2022-11-14T12:55:02.214Z,8.43
2022-11-14T13:00:01.978Z,7.18
2022-11-14T13:05:01.795Z,10.23
2022-11-14T13:10:02.662Z,7.50
2022-11-14T13:15:02.482Z,6.50
2022-11-14T13:20:02.298Z,12.63
2022-11-14T13:25:02.125Z,10.15
2022-11-14T13:30:01.861Z,8.32
2022-11-14T13:35:12.739Z,0
2022-11-14T13:40:02.520Z,6.85
2022-11-14T13:45:02.258Z,7.07
2022-11-14T13:50:02.221Z,8.18
2022-11-14T13:55:02.051Z,8.25
2022-11-14T14:00:01.838Z,10.57
2022-11-14T14:05:02.591Z,9.68
2022-11-14T14:10:02.429Z,10.52
2022-11-14T14:15:02.288Z,10.45
2022-11-14T14:20:02.057Z,8.90
2022-11-14T14:25:01.825Z,11.43
2022-11-14T14:30:12.632Z,0
2022-11-14T14:35:02.379Z,10.98
2022-11-14T14:40:02.537Z,9.98
2022-11-14T14:45:02.444Z,10.75
2022-11-14T14:50:02.400Z,13.00
2022-11-14T14:55:02.323Z,9.60
2022-11-14T15:00:02.426Z,10.10
2022-11-14T15:05:02.390Z,11.52
2022-11-14T15:10:02.220Z,8.77
2022-11-14T15:15:02.129Z,13.40
2022-11-14T15:20:01.941Z,9.90
2022-11-14T15:25:01.790Z,12.60
2022-11-14T15:30:02.642Z,10.27
2022-11-14T15:35:02.515Z,8.85
2022-11-14T15:40:02.290Z,10.52
2022-11-14T15:45:02.101Z,9.52
2022-11-14T15:50:01.938Z,11.05
2022-11-14T15:55:01.790Z,10.40
2022-11-14T16:00:02.649Z,9.77
2022-11-14T16:05:02.443Z,11.40
2022-11-14T16:10:02.386Z,11.35
2022-11-14T16:15:02.196Z,13.50
2022-11-14T16:20:02.017Z,10.90
2022-11-14T16:25:01.879Z,8.82
2022-11-14T16:30:02.765Z,8.48
2022-11-14T16:35:02.560Z,11.70
2022-11-14T16:40:02.375Z,10.20
2022-11-14T16:45:02.171Z,8.82
2022-11-14T16:50:02.086Z,9.93
2022-11-14T16:55:01.876Z,8.77
2022-11-14T17:00:02.637Z,11.82
2022-11-14T17:05:02.446Z,11.32
2022-11-14T17:10:02.498Z,9.00
2022-11-14T17:15:02.330Z,10.25
2022-11-14T17:20:02.113Z,9.45
2022-11-14T17:25:01.985Z,9.43
2022-11-14T17:30:01.896Z,10.50
2022-11-14T17:35:02.744Z,10.13
2022-11-14T17:40:02.777Z,10.40
2022-11-14T17:45:02.759Z,12.90
2022-11-14T17:50:02.662Z,11.98
2022-11-14T17:55:02.701Z,11.18
2022-11-14T18:00:02.517Z,10.27
2022-11-14T18:05:02.337Z,12.20
2022-11-14T18:10:02.187Z,12.55
2022-11-14T18:15:01.968Z,13.02
2022-11-14T18:20:01.833Z,12.32
2022-11-14T18:25:07.698Z,13.85
2022-11-14T18:30:19.799Z,13.27
2022-11-14T18:35:01.904Z,11.40
2022-11-14T18:40:02.766Z,11.32
2022-11-14T18:45:02.579Z,11.65
2022-11-14T18:50:02.314Z,10.98
2022-11-14T18:55:02.173Z,10.95
2022-11-14T19:00:02.007Z,14.80
2022-11-14T19:05:01.830Z,15.13
2022-11-14T19:10:02.667Z,14.23
2022-11-14T19:15:02.499Z,14.82
2022-11-14T19:20:02.324Z,16.63
2022-11-14T19:25:02.151Z,12.65
2022-11-14T19:30:01.946Z,12.77
2022-11-14T19:35:02.744Z,14.50
2022-11-14T19:40:02.704Z,18.52
2022-11-14T19:45:02.536Z,16.30
2022-11-14T19:50:02.295Z,13.18
2022-11-14T19:55:02.228Z,13.55
2022-11-14T20:00:02.111Z,13.35
2022-11-14T20:05:01.996Z,13.25
2022-11-14T20:10:02.045Z,12.50
2022-11-14T20:15:01.943Z,11.48
2022-11-14T20:20:01.898Z,12.75
2022-11-14T20:25:02.750Z,13.23
2022-11-14T20:30:02.717Z,12.57
2022-11-14T20:35:02.490Z,12.95
2022-11-14T20:40:02.437Z,16.63
2022-11-14T20:45:02.240Z,14.00
2022-11-14T20:50:02.110Z,10.43
2022-11-14T20:55:01.904Z,10.27
2022-11-14T21:00:03.562Z,10.30
2022-11-14T21:05:02.305Z,10.93
2022-11-14T21:10:02.111Z,10.38
2022-11-14T21:15:01.847Z,13.63
2022-11-14T21:20:02.809Z,11.45
2022-11-14T21:25:02.618Z,10.73
2022-11-14T21:30:02.500Z,11.10
2022-11-14T21:35:06.939Z,12.45
2022-11-14T21:40:02.224Z,9.75
2022-11-14T21:45:02.031Z,15.75
2022-11-14T21:50:01.873Z,8.70
2022-11-14T21:55:02.746Z,14.35
2022-11-14T22:00:02.535Z,12.82
2022-11-14T22:05:08.249Z,10.55
2022-11-14T22:10:07.958Z,11.52
2022-11-14T22:15:07.701Z,12.25
2022-11-14T22:20:08.428Z,11.00
2022-11-14T22:25:08.138Z,13.05
2022-11-14T22:30:07.908Z,9.57
2022-11-14T22:35:08.599Z,12.15
2022-11-14T22:40:08.381Z,9.80
2022-11-14T22:45:08.103Z,10.25
2022-11-14T22:50:07.799Z,8.85
2022-11-14T22:55:12.419Z,11.65
2022-11-14T23:00:08.020Z,10.20
2022-11-14T23:05:07.707Z,12.00
2022-11-14T23:10:08.407Z,13.13
2022-11-14T23:15:08.124Z,11.40
2022-11-14T23:20:12.246Z,13.80
2022-11-14T23:25:07.846Z,12.50
2022-11-14T23:30:08.579Z,10.25
2022-11-14T23:35:08.299Z,12.73
2022-11-14T23:40:08.038Z,11.77
2022-11-14T23:45:07.748Z,12.27
2022-11-14T23:50:08.452Z,11.32
2022-11-14T23:55:08.172Z,11.90
